Time;durP1;ratioP1;P1;durP2;ratioP2;P2;SDS_P1;SDS_P2;PMS_P1;PMS_P2;Temp;Humidity;BMP_temperature;BMP_pressure;BME280_temperature;BME280_humidity;BME280_pressure;Samples;Min_cycle;Max_cycle;Signal;HPM_P1;HPM_P2
2023/10/16 00:01:11;;;;;;;3.63;1.20;;;4.10;99.90;;;;;;4227688;27;20516;-78
2023/10/16 00:03:12;;;;;;;1.60;1.00;;;4.00;99.90;;;;;;4224834;28;20898;-78
2023/10/16 00:05:14;;;;;;;3.37;1.20;;;4.00;99.90;;;;;;4223236;28;20662;-78
2023/10/16 00:07:20;;;;;;;2.53;1.10;;;4.00;99.90;;;;;;4222808;28;21286;-76
2023/10/16 00:09:22;;;;;;;1.97;1.03;;;4.00;99.90;;;;;;4220398;27;20447;-78
2023/10/16 00:11:25;;;;;;;4.63;1.20;;;3.90;99.90;;;;;;4223155;27;20853;-78
2023/10/16 00:13:27;;;;;;;3.57;1.10;;;4.00;99.90;;;;;;4222859;27;20456;-78
2023/10/16 00:15:29;;;;;;;4.47;1.00;;;3.90;99.90;;;;;;4224611;27;20451;-78
2023/10/16 00:17:31;;;;;;;2.13;1.00;;;4.00;99.90;;;;;;4223391;28;20431;-78
2023/10/16 00:19:34;;;;;;;5.50;0.90;;;4.00;99.90;;;;;;4222696;28;20936;-77
2023/10/16 00:21:43;;;;;;;4.07;1.20;;;3.90;99.90;;;;;;4226407;28;20896;-77
2023/10/16 00:23:46;;;;;;;1.90;0.80;;;3.90;99.90;;;;;;4226840;27;20443;-76
2023/10/16 00:25:50;;;;;;;2.03;0.90;;;3.90;99.90;;;;;;4226422;28;20968;-77
2023/10/16 00:27:53;;;;;;;1.60;0.80;;;3.90;99.90;;;;;;4226942;28;20884;-77
2023/10/16 00:29:56;;;;;;;4.63;0.80;;;3.90;99.90;;;;;;4229068;28;20438;-77
2023/10/16 00:31:58;;;;;;;2.87;0.90;;;3.90;99.90;;;;;;4227811;27;20482;-77
2023/10/16 00:34:02;;;;;;;2.07;1.00;;;3.90;99.90;;;;;;4225226;27;20442;-78
2023/10/16 00:36:05;;;;;;;7.30;1.07;;;3.80;99.90;;;;;;4222984;27;20446;-77
2023/10/16 00:38:12;;;;;;;3.80;1.03;;;3.80;99.90;;;;;;4226328;27;20451;-76
2023/10/16 00:40:15;;;;;;;1.37;1.00;;;3.80;99.90;;;;;;4225439;28;20451;-78
2023/10/16 00:42:22;;;;;;;4.90;1.40;;;3.80;99.90;;;;;;4223452;28;20474;-77
2023/10/16 00:44:25;;;;;;;2.73;1.20;;;3.80;99.90;;;;;;4220839;27;20435;-75
2023/10/16 00:46:32;;;;;;;4.07;1.00;;;3.80;99.90;;;;;;4227462;27;20478;-74
2023/10/16 00:48:35;;;;;;;2.23;0.87;;;3.80;99.90;;;;;;4219680;28;20435;-74
2023/10/16 00:50:37;;;;;;;4.17;1.00;;;3.80;99.90;;;;;;4224272;28;20552;-74
2023/10/16 00:52:42;;;;;;;1.73;0.87;;;3.80;99.90;;;;;;4223186;28;20442;-75
2023/10/16 00:54:46;;;;;;;3.23;1.07;;;3.80;99.90;;;;;;4227556;28;20528;-76
2023/10/16 00:56:49;;;;;;;4.83;1.00;;;3.90;99.90;;;;;;4221255;28;20854;-76
2023/10/16 00:58:51;;;;;;;4.70;1.20;;;4.90;99.90;;;;;;4227066;28;20490;-75
2023/10/16 01:00:57;;;;;;;6.77;0.87;;;3.80;99.90;;;;;;4223935;28;20494;-75
2023/10/16 01:03:04;;;;;;;4.20;1.10;;;3.70;99.90;;;;;;4221657;28;20488;-75
2023/10/16 01:05:07;;;;;;;4.47;1.10;;;3.80;99.90;;;;;;4222227;28;20467;-77
2023/10/16 01:07:09;;;;;;;4.10;1.13;;;3.70;99.90;;;;;;4220767;28;21193;-78
2023/10/16 01:09:22;;;;;;;3.00;1.00;;;3.70;99.90;;;;;;4223990;28;20439;-77
2023/10/16 01:11:26;;;;;;;3.37;1.07;;;3.70;99.90;;;;;;4219786;28;20486;-77
2023/10/16 01:13:28;;;;;;;2.87;1.00;;;3.70;99.90;;;;;;4223613;28;20462;-79
2023/10/16 01:15:29;;;;;;;2.93;1.03;;;3.70;99.90;;;;;;4227191;28;20443;-79
2023/10/16 01:17:35;;;;;;;1.93;0.90;;;3.70;99.90;;;;;;4224712;28;20881;-77
2023/10/16 01:19:38;;;;;;;2.50;0.97;;;3.70;99.90;;;;;;4221780;28;20196;-76
2023/10/16 01:21:39;;;;;;;6.20;0.97;;;3.70;99.90;;;;;;4225101;28;20894;-76
2023/10/16 01:23:44;;;;;;;2.83;1.00;;;3.70;99.90;;;;;;4230627;27;20438;-77
2023/10/16 01:25:46;;;;;;;2.77;1.00;;;3.60;99.90;;;;;;4226556;27;21181;-75
2023/10/16 01:27:48;;;;;;;1.53;0.93;;;3.70;99.90;;;;;;4225814;27;20474;-75
2023/10/16 01:29:50;;;;;;;2.80;0.70;;;3.70;99.90;;;;;;4228663;27;20438;-75
2023/10/16 01:31:52;;;;;;;2.90;1.07;;;3.70;99.90;;;;;;4230173;27;20457;-77
2023/10/16 01:33:54;;;;;;;5.47;0.80;;;3.60;99.90;;;;;;4224726;28;20844;-76
2023/10/16 01:35:58;;;;;;;2.50;1.00;;;3.60;99.90;;;;;;4227191;28;20646;-76
2023/10/16 01:38:00;;;;;;;3.77;1.20;;;3.60;99.90;;;;;;4225833;28;20448;-76
2023/10/16 01:40:17;;;;;;;2.43;1.00;;;3.60;99.90;;;;;;4222905;28;20283;-77
2023/10/16 01:42:19;;;;;;;2.73;0.90;;;3.60;99.90;;;;;;4222795;27;20466;-76
2023/10/16 01:44:21;;;;;;;5.60;1.10;;;3.60;99.90;;;;;;4228374;27;20492;-76
2023/10/16 01:46:26;;;;;;;3.30;0.97;;;3.60;99.90;;;;;;4222129;28;20455;-77
2023/10/16 01:48:30;;;;;;;7.73;1.30;;;3.60;99.90;;;;;;4227948;27;20489;-76
2023/10/16 01:50:32;;;;;;;4.90;1.00;;;3.50;99.90;;;;;;4229328;27;20453;-78
2023/10/16 01:52:34;;;;;;;5.33;1.10;;;3.50;99.90;;;;;;4232673;27;20811;-79
2023/10/16 01:54:37;;;;;;;1.57;0.80;;;3.50;99.90;;;;;;4225522;27;20453;-77
2023/10/16 01:56:41;;;;;;;4.70;1.30;;;3.50;99.90;;;;;;4232809;27;20438;-76
2023/10/16 01:58:44;;;;;;;2.60;0.87;;;3.50;99.90;;;;;;4226764;27;20450;-76
2023/10/16 02:00:46;;;;;;;5.87;0.93;;;3.50;99.90;;;;;;4229328;27;20457;-76
2023/10/16 02:02:48;;;;;;;3.50;1.10;;;3.50;99.90;;;;;;4224131;27;20508;-76
2023/10/16 02:04:50;;;;;;;2.87;0.90;;;3.50;99.90;;;;;;4231529;27;20548;-75
2023/10/16 02:06:52;;;;;;;2.07;0.80;;;3.50;99.90;;;;;;4228062;27;20474;-77
2023/10/16 02:08:54;;;;;;;2.30;0.87;;;3.50;99.90;;;;;;4225196;28;20453;-76
2023/10/16 02:10:58;;;;;;;1.87;0.80;;;3.50;99.90;;;;;;4224397;28;20462;-77
2023/10/16 02:13:01;;;;;;;4.10;0.83;;;3.50;99.90;;;;;;4226800;28;20834;-77
2023/10/16 02:15:07;;;;;;;5.67;0.90;;;3.50;99.90;;;;;;4226449;28;20434;-77
2023/10/16 02:17:14;;;;;;;6.40;1.10;;;3.40;99.90;;;;;;4228688;28;20465;-77
2023/10/16 02:19:16;;;;;;;2.60;1.07;;;3.40;99.90;;;;;;4224746;27;20570;-77
2023/10/16 02:21:19;;;;;;;5.50;1.13;;;3.40;99.90;;;;;;4225109;27;20474;-76
2023/10/16 02:23:21;;;;;;;2.93;1.00;;;3.40;99.90;;;;;;4222162;28;20504;-77
2023/10/16 02:25:23;;;;;;;6.57;1.50;;;3.40;99.90;;;;;;4228498;27;20533;-77
2023/10/16 02:27:25;;;;;;;7.30;1.97;;;3.40;99.90;;;;;;4233945;27;20515;-77
2023/10/16 02:29:31;;;;;;;7.13;1.67;;;3.40;99.90;;;;;;4227858;28;20456;-75
2023/10/16 02:31:39;;;;;;;4.50;1.20;;;3.40;99.90;;;;;;4223834;28;20498;-77
2023/10/16 02:33:45;;;;;;;5.67;1.27;;;3.30;99.90;;;;;;4224822;28;20458;-75
2023/10/16 02:35:49;;;;;;;2.07;1.30;;;3.30;99.90;;;;;;4227312;27;20960;-76
2023/10/16 02:37:53;;;;;;;4.53;1.27;;;3.30;99.90;;;;;;4224062;28;20438;-76
2023/10/16 02:39:55;;;;;;;5.43;1.27;;;3.30;99.90;;;;;;4227853;28;21223;-77
2023/10/16 02:41:59;;;;;;;2.57;1.40;;;3.20;99.90;;;;;;4222839;27;20527;-78
2023/10/16 02:44:01;;;;;;;5.03;1.30;;;3.20;99.90;;;;;;4224776;28;20550;-77
2023/10/16 02:46:08;;;;;;;2.23;1.00;;;3.30;99.90;;;;;;4229559;28;20435;-77
2023/10/16 02:48:16;;;;;;;6.27;1.40;;;3.20;99.90;;;;;;4226485;28;20482;-77
2023/10/16 02:50:18;;;;;;;2.67;1.20;;;3.30;99.90;;;;;;4226481;27;20458;-76
2023/10/16 02:52:20;;;;;;;2.30;1.00;;;3.30;99.90;;;;;;4230005;28;21000;-77
2023/10/16 02:54:23;;;;;;;7.27;1.90;;;3.20;99.90;;;;;;4228630;28;20799;-77
2023/10/16 02:56:25;;;;;;;3.87;1.10;;;3.30;99.90;;;;;;4226124;28;20484;-77
2023/10/16 02:58:28;;;;;;;3.07;1.33;;;3.20;99.90;;;;;;4225157;27;20478;-77
2023/10/16 03:00:34;;;;;;;4.77;1.60;;;3.20;99.90;;;;;;4230430;27;20466;-78
2023/10/16 03:02:39;;;;;;;3.57;1.47;;;3.30;99.90;;;;;;4224377;27;20462;-77
2023/10/16 03:04:40;;;;;;;1.63;1.30;;;3.20;99.90;;;;;;4225076;28;20438;-78
2023/10/16 03:06:42;;;;;;;6.73;1.47;;;3.20;99.90;;;;;;4231174;27;20515;-77
2023/10/16 03:08:48;;;;;;;4.03;1.40;;;3.20;99.90;;;;;;4231683;27;20447;-79
2023/10/16 03:10:51;;;;;;;4.33;1.70;;;3.20;99.90;;;;;;4224992;28;20472;-77
2023/10/16 03:12:55;;;;;;;4.70;1.67;;;3.20;99.90;;;;;;4227204;28;20449;-78
2023/10/16 03:14:58;;;;;;;3.00;1.57;;;3.20;99.90;;;;;;4229822;27;20430;-76
2023/10/16 03:17:08;;;;;;;4.57;1.70;;;3.20;99.90;;;;;;4233807;27;20473;-79
2023/10/16 03:19:16;;;;;;;4.50;1.97;;;3.20;99.90;;;;;;4225041;28;20455;-79
2023/10/16 03:21:31;;;;;;;5.27;1.83;;;3.20;99.90;;;;;;4222895;28;20978;-77
2023/10/16 03:23:32;;;;;;;3.57;1.57;;;3.20;99.90;;;;;;4224838;28;20874;-77
2023/10/16 03:27:50;;;;;;;5.87;1.80;;;3.20;99.90;;;;;;4227016;27;20227;-74
2023/10/16 03:29:52;;;;;;;4.07;1.40;;;3.20;99.90;;;;;;4227594;28;20485;-76
2023/10/16 03:31:54;;;;;;;3.77;1.70;;;3.20;99.90;;;;;;4228076;27;20450;-78
2023/10/16 03:33:56;;;;;;;6.27;1.70;;;3.20;99.90;;;;;;4222043;27;20461;-77
2023/10/16 03:36:02;;;;;;;3.27;1.33;;;2.80;99.90;;;;;;4227040;28;20955;-77
2023/10/16 03:38:10;;;;;;;2.47;1.27;;;3.20;99.90;;;;;;4222903;27;20455;-77
2023/10/16 03:40:13;;;;;;;5.00;1.50;;;3.10;99.90;;;;;;4228515;27;20440;-74
2023/10/16 03:42:17;;;;;;;3.37;1.70;;;3.10;99.90;;;;;;4226177;28;20552;-74
2023/10/16 03:44:21;;;;;;;4.33;1.50;;;3.10;99.90;;;;;;4224345;27;20457;-74
2023/10/16 03:46:23;;;;;;;3.87;1.50;;;3.10;99.90;;;;;;4223819;27;20805;-74
2023/10/16 03:48:25;;;;;;;2.93;1.83;;;3.10;99.90;;;;;;4225386;27;20520;-74
2023/10/16 03:50:34;;;;;;;5.67;2.00;;;3.10;99.90;;;;;;4225483;27;20496;-74
2023/10/16 03:52:38;;;;;;;3.10;1.43;;;3.10;99.90;;;;;;4223261;28;20469;-74
2023/10/16 03:54:42;;;;;;;4.70;1.83;;;3.10;99.90;;;;;;4225921;27;20450;-74
2023/10/16 03:56:48;;;;;;;6.20;2.10;;;3.10;99.90;;;;;;4223855;27;21165;-74
2023/10/16 03:58:53;;;;;;;3.10;1.40;;;3.00;99.90;;;;;;4221640;28;20453;-74
2023/10/16 04:00:56;;;;;;;2.93;1.30;;;3.10;99.90;;;;;;4223251;27;20527;-75
2023/10/16 04:02:59;;;;;;;5.30;1.93;;;3.20;99.90;;;;;;4225313;28;20940;-74
2023/10/16 04:05:05;;;;;;;4.27;1.83;;;3.00;99.90;;;;;;4228606;27;20442;-74
2023/10/16 04:07:13;;;;;;;3.90;1.53;;;3.00;99.90;;;;;;4221991;27;20879;-74
2023/10/16 04:09:17;;;;;;;4.57;1.53;;;3.00;99.90;;;;;;4227659;27;20949;-74
2023/10/16 04:11:21;;;;;;;2.93;1.50;;;3.00;99.90;;;;;;4226279;28;20509;-74
2023/10/16 04:13:26;;;;;;;3.37;1.53;;;3.00;99.90;;;;;;4223755;27;20454;-74
2023/10/16 04:15:59;;;;;;;5.53;1.70;;;2.90;99.90;;;;;;4229625;27;21031;-74
2023/10/16 04:18:04;;;;;;;5.27;1.40;;;3.00;99.90;;;;;;4224451;28;20492;-74
2023/10/16 04:22:25;;;;;;;4.00;1.50;;;3.00;99.90;;;;;;4221658;28;20557;-74
2023/10/16 04:24:43;;;;;;;5.07;1.60;;;3.40;99.90;;;;;;4221615;28;20446;-74
2023/10/16 04:26:57;;;;;;;7.57;2.03;;;2.90;99.90;;;;;;4223625;28;20957;-76
2023/10/16 04:31:43;;;;;;;5.50;2.40;;;3.00;99.90;;;;;;4224461;28;20535;-75
2023/10/16 04:33:53;;;;;;;5.43;1.97;;;2.90;99.90;;;;;;4225470;27;20498;-75
2023/10/16 04:38:27;;;;;;;5.97;2.40;;;2.90;99.90;;;;;;4226197;27;21043;-74
2023/10/16 04:43:09;;;;;;;13.43;2.60;;;3.60;99.90;;;;;;4225745;27;20500;-74
2023/10/16 04:45:38;;;;;;;9.37;3.07;;;3.30;99.90;;;;;;4220868;28;20458;-76
2023/10/16 04:47:47;;;;;;;4.60;2.10;;;2.90;99.90;;;;;;4222091;28;20469;-75
2023/10/16 04:49:59;;;;;;;8.57;2.50;;;2.90;99.90;;;;;;4223346;28;21372;-75
2023/10/16 04:52:07;;;;;;;8.23;2.93;;;2.90;99.90;;;;;;4221954;28;20569;-74
2023/10/16 04:54:27;;;;;;;7.07;2.70;;;2.90;99.90;;;;;;4220146;28;20912;-75
2023/10/16 04:58:59;;;;;;;10.23;2.90;;;2.90;99.90;;;;;;4222679;28;20503;-76
2023/10/16 05:03:44;;;;;;;8.57;2.53;;;2.90;99.90;;;;;;4156712;28;20843;-75
2023/10/16 05:05:56;;;;;;;8.13;2.63;;;2.90;99.90;;;;;;4225818;28;20829;-76
2023/10/16 05:08:30;;;;;;;5.20;2.07;;;2.90;99.90;;;;;;4229128;28;21010;-75
2023/10/16 05:15:37;;;;;;;2.80;1.93;;;3.00;99.90;;;;;;4221498;28;20504;-76
2023/10/16 05:18:00;;;;;;;4.60;2.10;;;2.90;99.90;;;;;;4223969;28;20472;-76
2023/10/16 05:20:52;;;;;;;6.77;2.27;;;2.90;99.90;;;;;;4224154;28;20482;-76
2023/10/16 06:16:16;;;;;;;7.23;2.87;;;2.90;99.90;;;;;;4222559;28;20505;-79
2023/10/16 06:18:19;;;;;;;9.97;2.93;;;2.90;99.90;;;;;;4221873;27;20560;-81
2023/10/16 06:20:21;;;;;;;11.00;3.20;;;2.90;99.90;;;;;;4226750;27;20477;-79
2023/10/16 06:22:23;;;;;;;7.60;3.23;;;2.90;99.90;;;;;;4219013;27;21245;-80
2023/10/16 06:24:28;;;;;;;8.20;3.27;;;3.00;99.90;;;;;;4223139;27;20511;-79
2023/10/16 06:26:30;;;;;;;8.03;4.03;;;3.00;99.90;;;;;;4224188;27;21664;-79
2023/10/16 06:28:32;;;;;;;5.57;3.27;;;3.20;99.90;;;;;;4227743;28;20478;-79
2023/10/16 06:30:37;;;;;;;8.03;3.33;;;3.00;99.90;;;;;;4223487;28;20462;-79
2023/10/16 06:32:39;;;;;;;8.83;3.20;;;3.10;99.90;;;;;;4226961;28;20862;-79
2023/10/16 06:34:42;;;;;;;8.27;3.30;;;3.10;99.90;;;;;;4224957;28;20467;-79
2023/10/16 06:36:47;;;;;;;8.63;3.47;;;3.10;99.90;;;;;;4221370;28;20484;-79
2023/10/16 06:38:51;;;;;;;8.93;3.77;;;3.20;99.90;;;;;;4222375;28;20455;-79
2023/10/16 06:40:55;;;;;;;8.10;3.43;;;3.20;99.90;;;;;;4221789;27;20960;-79
2023/10/16 06:43:10;;;;;;;7.00;3.60;;;3.30;99.90;;;;;;4222822;28;20442;-79
2023/10/16 06:45:19;;;;;;;6.30;2.97;;;3.30;99.90;;;;;;4223832;28;21022;-79
2023/10/16 06:47:34;;;;;;;8.50;3.53;;;3.30;99.90;;;;;;4226949;27;20450;-78
2023/10/16 06:49:37;;;;;;;6.73;3.30;;;3.30;99.90;;;;;;4223608;28;20442;-79
2023/10/16 06:51:43;;;;;;;8.83;3.40;;;3.40;99.90;;;;;;4223670;28;21285;-79
2023/10/16 06:53:46;;;;;;;8.83;3.10;;;3.40;99.90;;;;;;4220442;28;20446;-80
2023/10/16 06:55:50;;;;;;;5.87;3.30;;;3.40;99.90;;;;;;4222301;28;20488;-79
2023/10/16 06:57:51;;;;;;;8.03;2.80;;;3.40;99.90;;;;;;4225670;27;20461;-77
2023/10/16 06:59:55;;;;;;;4.77;2.80;;;3.60;99.90;;;;;;4224938;27;20431;-78
2023/10/16 07:01:59;;;;;;;6.47;2.93;;;3.50;99.90;;;;;;4225490;28;20466;-77
2023/10/16 07:04:00;;;;;;;6.93;2.97;;;3.50;99.90;;;;;;4227923;28;20442;-77
2023/10/16 07:06:05;;;;;;;7.93;3.23;;;3.60;99.90;;;;;;4224305;27;20440;-78
2023/10/16 07:08:08;;;;;;;9.43;3.33;;;3.70;99.90;;;;;;4227194;28;20513;-77
2023/10/16 07:10:13;;;;;;;10.33;3.67;;;3.60;99.90;;;;;;4229740;28;20815;-79
2023/10/16 07:12:17;;;;;;;7.77;3.40;;;3.70;99.90;;;;;;4227981;27;20557;-78
2023/10/16 07:14:23;;;;;;;6.27;3.00;;;3.80;99.90;;;;;;4228706;28;20487;-77
2023/10/16 07:16:25;;;;;;;5.23;3.20;;;3.80;99.90;;;;;;4224438;28;20442;-77
2023/10/16 07:18:32;;;;;;;9.17;3.50;;;3.80;99.90;;;;;;4224081;28;20470;-77
2023/10/16 07:20:52;;;;;;;7.10;3.27;;;3.90;99.90;;;;;;4226308;27;20932;-79
2023/10/16 07:22:59;;;;;;;6.20;3.20;;;3.90;99.90;;;;;;4226599;28;20432;-77
2023/10/16 07:25:23;;;;;;;6.00;3.40;;;3.90;99.90;;;;;;4245423;27;20453;-78
2023/10/16 07:27:30;;;;;;;8.03;3.67;;;3.90;99.90;;;;;;4226122;28;20937;-79
2023/10/16 07:29:35;;;;;;;15.33;4.30;;;4.00;99.90;;;;;;4224861;28;21201;-78
2023/10/16 07:31:37;;;;;;;7.73;3.70;;;4.10;99.90;;;;;;4226839;27;20459;-78
2023/10/16 07:33:40;;;;;;;10.77;4.27;;;4.20;99.90;;;;;;4227862;28;20449;-78
2023/10/16 07:35:44;;;;;;;6.43;3.80;;;4.20;99.90;;;;;;4223090;28;20438;-79
2023/10/16 07:37:48;;;;;;;11.33;4.17;;;4.20;99.90;;;;;;4227465;27;20455;-77
2023/10/16 07:39:50;;;;;;;15.03;4.50;;;4.30;99.90;;;;;;4226621;27;20542;-77
2023/10/16 07:41:56;;;;;;;12.73;4.10;;;4.30;99.90;;;;;;4224882;28;20520;-77
2023/10/16 07:44:04;;;;;;;9.57;4.47;;;4.70;99.90;;;;;;4228462;27;20483;-79
2023/10/16 07:46:17;;;;;;;11.17;4.13;;;4.40;99.90;;;;;;4223398;27;20452;-77
2023/10/16 07:48:21;;;;;;;11.23;4.70;;;4.50;99.90;;;;;;4225553;28;20527;-80
2023/10/16 07:50:23;;;;;;;8.90;4.40;;;4.50;99.90;;;;;;4224297;28;20444;-78
2023/10/16 07:52:28;;;;;;;11.83;4.50;;;4.60;99.90;;;;;;4227300;27;20479;-78
2023/10/16 07:54:30;;;;;;;8.97;4.63;;;4.60;99.90;;;;;;4221837;28;20518;-77
2023/10/16 07:56:33;;;;;;;8.80;4.47;;;4.70;99.90;;;;;;4225628;27;20611;-77
2023/10/16 07:58:39;;;;;;;16.07;5.03;;;4.80;99.90;;;;;;4229256;27;20467;-77
2023/10/16 08:00:56;;;;;;;10.43;4.70;;;4.90;99.90;;;;;;4220964;28;20443;-77
2023/10/16 08:03:04;;;;;;;11.77;5.30;;;4.90;99.90;;;;;;4226823;27;20487;-78
2023/10/16 08:05:15;;;;;;;11.80;5.90;;;5.00;99.90;;;;;;4224211;28;20487;-77
2023/10/16 08:07:18;;;;;;;13.57;5.07;;;5.10;99.90;;;;;;4229502;28;20492;-77
2023/10/16 08:09:48;;;;;;;13.27;6.47;;;5.30;99.90;;;;;;4225338;27;20481;-77
2023/10/16 08:11:57;;;;;;;11.07;5.53;;;5.40;99.90;;;;;;4228344;28;20459;-76
2023/10/16 08:14:06;;;;;;;13.10;5.67;;;5.50;99.90;;;;;;4221983;28;20439;-76
2023/10/16 08:16:08;;;;;;;9.97;4.57;;;5.60;99.90;;;;;;4225457;27;20458;-77
2023/10/16 08:18:11;;;;;;;14.17;5.23;;;5.60;99.90;;;;;;4228523;28;20927;-77
2023/10/16 08:20:17;;;;;;;11.60;5.47;;;5.70;99.90;;;;;;4227796;27;20555;-76
2023/10/16 08:22:25;;;;;;;9.50;4.57;;;5.80;99.90;;;;;;4224904;28;20473;-76
2023/10/16 08:24:28;;;;;;;8.40;4.93;;;5.90;99.90;;;;;;4222272;28;20460;-76
2023/10/16 08:26:30;;;;;;;10.20;5.33;;;5.90;99.90;;;;;;4224820;28;20929;-77
2023/10/16 08:28:44;;;;;;;15.73;5.10;;;6.00;99.90;;;;;;4227842;28;20472;-76
2023/10/16 08:30:53;;;;;;;12.10;5.47;;;6.00;99.90;;;;;;4224463;28;20433;-76
2023/10/16 08:33:06;;;;;;;10.60;4.47;;;6.10;99.90;;;;;;4223690;28;20528;-76
2023/10/16 08:35:09;;;;;;;13.23;4.43;;;6.20;99.90;;;;;;4228983;27;20449;-76
2023/10/16 08:37:13;;;;;;;7.97;4.30;;;6.30;99.90;;;;;;4225000;28;20823;-76
2023/10/16 08:39:16;;;;;;;13.30;3.93;;;6.30;99.90;;;;;;4223114;28;20450;-77
2023/10/16 08:41:19;;;;;;;9.10;4.30;;;6.40;99.90;;;;;;4222271;28;20999;-76
2023/10/16 08:43:29;;;;;;;9.53;4.17;;;6.50;99.90;;;;;;4225561;27;20544;-77
2023/10/16 08:45:32;;;;;;;8.23;4.30;;;6.50;99.90;;;;;;4223773;28;20448;-77
2023/10/16 08:47:35;;;;;;;8.40;4.03;;;6.60;99.90;;;;;;4225593;27;20438;-76
2023/10/16 08:49:39;;;;;;;9.07;4.20;;;6.60;99.90;;;;;;4224747;28;20524;-77
2023/10/16 08:51:41;;;;;;;10.70;4.07;;;6.60;99.90;;;;;;4225440;27;21371;-76
2023/10/16 08:53:42;;;;;;;8.77;3.83;;;6.70;99.90;;;;;;4225293;28;20458;-77
2023/10/16 08:55:45;;;;;;;11.10;3.80;;;6.80;99.90;;;;;;4222957;28;20446;-77
2023/10/16 08:57:49;;;;;;;8.30;4.27;;;6.80;99.90;;;;;;4226936;27;20439;-77
2023/10/16 08:59:51;;;;;;;11.40;4.37;;;6.90;99.90;;;;;;4230972;28;20425;-77
2023/10/16 09:01:55;;;;;;;10.73;3.67;;;6.90;99.90;;;;;;4230377;28;20211;-78
2023/10/16 09:04:05;;;;;;;7.73;3.70;;;7.00;99.90;;;;;;4230150;28;20461;-78
2023/10/16 09:06:06;;;;;;;7.00;3.13;;;7.00;99.90;;;;;;4231238;28;20458;-78
2023/10/16 09:08:14;;;;;;;6.60;3.20;;;7.10;99.90;;;;;;4228296;28;20212;-76
2023/10/16 09:10:21;;;;;;;5.67;3.10;;;7.20;99.90;;;;;;4224815;28;20718;-77
2023/10/16 09:12:26;;;;;;;9.83;3.20;;;7.30;99.90;;;;;;4228076;28;20462;-77
2023/10/16 09:14:28;;;;;;;9.23;2.60;;;7.40;99.90;;;;;;4224036;28;20794;-76
2023/10/16 09:16:34;;;;;;;8.00;2.87;;;7.40;99.90;;;;;;4224249;28;20208;-77
2023/10/16 09:18:36;;;;;;;6.63;2.73;;;7.50;99.90;;;;;;4224903;28;20204;-81
2023/10/16 09:20:42;;;;;;;6.77;2.77;;;7.50;99.90;;;;;;4226832;28;20219;-76
2023/10/16 09:22:45;;;;;;;6.23;2.93;;;7.60;99.90;;;;;;4226688;28;20201;-78
2023/10/16 09:24:51;;;;;;;7.87;3.43;;;7.70;99.90;;;;;;4222710;28;21126;-76
2023/10/16 09:26:55;;;;;;;10.67;2.67;;;7.80;99.90;;;;;;4229264;28;20628;-79
2023/10/16 09:29:04;;;;;;;6.47;2.27;;;7.80;99.90;;;;;;4227062;27;20256;-76
2023/10/16 09:31:07;;;;;;;7.30;2.17;;;7.90;99.90;;;;;;4228343;28;20220;-78
2023/10/16 09:33:10;;;;;;;7.00;2.27;;;7.90;99.90;;;;;;4222054;28;20213;-76
2023/10/16 09:35:12;;;;;;;5.70;2.33;;;7.90;99.90;;;;;;4226024;28;20269;-77
2023/10/16 09:37:16;;;;;;;4.53;1.93;;;8.00;99.90;;;;;;4222608;28;20265;-76
2023/10/16 09:39:17;;;;;;;9.83;1.93;;;8.00;99.90;;;;;;4227554;28;20696;-77
2023/10/16 09:43:40;;;;;;;11.70;2.37;;;8.10;99.90;;;;;;4223935;27;20257;-83
2023/10/16 09:45:46;;;;;;;7.97;2.10;;;8.20;99.90;;;;;;4229525;27;20207;-77
2023/10/16 09:47:49;;;;;;;10.33;2.80;;;8.20;99.90;;;;;;4227319;28;20254;-78
2023/10/16 09:49:53;;;;;;;11.57;3.87;;;8.30;99.90;;;;;;4230387;27;20692;-78
2023/10/16 09:51:59;;;;;;;8.53;3.33;;;8.40;99.90;;;;;;4224097;28;20227;-78
2023/10/16 09:54:05;;;;;;;8.90;2.90;;;8.40;99.90;;;;;;4222975;28;21070;-79
2023/10/16 09:56:12;;;;;;;6.57;2.27;;;8.40;99.90;;;;;;4222558;27;20213;-79
2023/10/16 09:58:14;;;;;;;8.47;2.30;;;8.50;99.90;;;;;;4230261;28;20212;-79
2023/10/16 10:00:28;;;;;;;7.00;2.23;;;8.60;99.90;;;;;;4227679;28;20211;-79
2023/10/16 10:02:35;;;;;;;5.87;2.30;;;8.70;99.90;;;;;;4229636;27;20228;-79
2023/10/16 10:04:38;;;;;;;5.63;2.50;;;8.90;99.90;;;;;;4228814;27;20687;-79
2023/10/16 10:06:45;;;;;;;4.93;2.50;;;9.10;99.90;;;;;;4229191;28;20198;-79
2023/10/16 10:09:20;;;;;;;7.20;2.60;;;9.30;99.90;;;;;;4222953;28;20202;-77
2023/10/16 10:11:17;;;;;;;7.97;2.77;;;9.40;99.90;;;;;;4228093;27;20221;-76
2023/10/16 10:13:25;;;;;;;4.10;2.20;;;9.70;99.90;;;;;;4221832;28;20615;-77
2023/10/16 10:15:33;;;;;;;7.60;2.70;;;9.70;99.90;;;;;;4222833;28;20216;-77
2023/10/16 10:17:39;;;;;;;5.83;2.50;;;10.10;99.90;;;;;;4222233;27;20253;-76
2023/10/16 10:19:42;;;;;;;5.90;2.90;;;9.90;99.90;;;;;;4223582;28;20212;-77
2023/10/16 10:21:46;;;;;;;6.40;2.90;;;10.10;99.90;;;;;;4225032;27;20698;-76
2023/10/16 10:23:49;;;;;;;6.63;3.00;;;10.10;99.90;;;;;;4225196;28;20212;-77
2023/10/16 10:25:55;;;;;;;6.17;2.67;;;10.10;99.90;;;;;;4223368;28;20299;-81
2023/10/16 10:28:09;;;;;;;6.37;2.80;;;10.20;99.90;;;;;;4224407;28;20211;-81
2023/10/16 10:30:17;;;;;;;5.27;2.97;;;10.20;99.90;;;;;;4229931;27;20230;-77
2023/10/16 10:32:21;;;;;;;7.23;2.77;;;10.30;99.90;;;;;;4225243;27;20243;-78
2023/10/16 10:34:24;;;;;;;7.77;3.00;;;10.40;99.90;;;;;;4224199;27;20273;-78
2023/10/16 10:36:34;;;;;;;8.07;2.60;;;10.50;99.90;;;;;;4229717;27;20226;-77
2023/10/16 10:38:36;;;;;;;4.40;2.33;;;10.50;99.90;;;;;;4224961;27;20231;-79
2023/10/16 10:40:38;;;;;;;6.93;2.60;;;10.60;99.90;;;;;;4227687;27;20212;-79
2023/10/16 10:42:41;;;;;;;6.27;2.40;;;10.70;99.90;;;;;;4226213;27;20277;-78
2023/10/16 10:44:54;;;;;;;8.60;2.67;;;10.70;99.90;;;;;;4225951;27;20204;-77
2023/10/16 10:47:00;;;;;;;5.43;2.07;;;11.00;99.90;;;;;;4224177;27;20204;-78
2023/10/16 10:49:02;;;;;;;11.00;2.50;;;10.90;99.90;;;;;;4227548;27;20218;-79
2023/10/16 10:51:07;;;;;;;6.07;2.13;;;10.90;99.90;;;;;;4226143;28;20220;-80
2023/10/16 10:53:14;;;;;;;6.40;2.63;;;10.90;99.90;;;;;;4222321;27;20203;-79
2023/10/16 10:55:21;;;;;;;4.17;2.00;;;11.00;99.90;;;;;;4224130;28;20204;-78
2023/10/16 10:57:24;;;;;;;3.23;1.87;;;11.00;99.90;;;;;;4227256;28;20204;-79
2023/10/16 10:59:39;;;;;;;3.93;1.60;;;11.10;99.90;;;;;;4221650;28;20205;-76
2023/10/16 11:01:51;;;;;;;4.17;1.50;;;11.10;99.90;;;;;;4230194;27;20228;-80
2023/10/16 11:03:57;;;;;;;3.07;1.40;;;11.20;99.90;;;;;;4230080;28;20210;-78
2023/10/16 11:05:58;;;;;;;5.67;1.40;;;11.20;99.90;;;;;;4226886;27;20204;-79
2023/10/16 11:10:17;;;;;;;4.57;1.43;;;11.30;99.90;;;;;;4212522;27;20274;-79
2023/10/16 11:12:24;;;;;;;3.57;1.07;;;11.30;99.90;;;;;;4224882;28;20228;-78
2023/10/16 11:14:36;;;;;;;4.67;1.50;;;11.30;99.90;;;;;;4231695;28;20220;-79
2023/10/16 11:16:48;;;;;;;5.63;1.60;;;11.40;99.90;;;;;;4235768;27;20207;-81
2023/10/16 11:19:04;;;;;;;3.93;1.37;;;11.50;99.90;;;;;;4230882;27;20205;-79
2023/10/16 11:21:06;;;;;;;3.40;1.40;;;11.60;99.90;;;;;;4227703;27;20220;-80
2023/10/16 11:23:12;;;;;;;3.53;1.47;;;11.70;99.90;;;;;;4226651;28;20296;-78
2023/10/16 11:25:19;;;;;;;6.37;1.70;;;11.80;99.90;;;;;;4228429;28;20230;-81
2023/10/16 11:27:22;;;;;;;2.67;1.50;;;11.90;99.90;;;;;;4225552;27;20647;-80
2023/10/16 11:29:33;;;;;;;5.57;1.60;;;11.90;99.90;;;;;;4223660;28;20381;-80
2023/10/16 11:31:40;;;;;;;4.03;1.43;;;11.90;99.90;;;;;;4225903;28;20224;-79
2023/10/16 11:33:44;;;;;;;4.33;1.50;;;11.90;99.90;;;;;;4225943;28;20731;-78
2023/10/16 11:35:47;;;;;;;3.93;1.43;;;11.90;99.90;;;;;;4224796;28;20253;-79
2023/10/16 11:37:55;;;;;;;2.40;1.10;;;11.80;99.90;;;;;;4226582;27;20200;-79
2023/10/16 11:39:59;;;;;;;2.90;1.30;;;11.90;99.90;;;;;;4223827;28;20204;-78
2023/10/16 11:42:02;;;;;;;5.10;1.50;;;11.80;99.90;;;;;;4227899;27;20228;-77
2023/10/16 11:44:13;;;;;;;4.03;1.40;;;11.90;99.90;;;;;;4224013;28;20621;-78
2023/10/16 11:46:29;;;;;;;5.07;1.33;;;11.90;99.90;;;;;;4225610;27;20288;-75
2023/10/16 11:48:42;;;;;;;3.90;1.60;;;11.90;99.90;;;;;;4228402;27;20262;-77
2023/10/16 11:50:45;;;;;;;3.50;1.33;;;12.00;99.90;;;;;;4225740;28;20250;-80
2023/10/16 11:52:47;;;;;;;3.17;1.10;;;12.00;99.90;;;;;;4226669;28;20857;-80
2023/10/16 11:54:53;;;;;;;5.17;1.40;;;11.90;99.90;;;;;;4225243;28;20253;-78
2023/10/16 11:56:55;;;;;;;1.93;1.10;;;11.90;99.90;;;;;;4225370;27;20205;-78
2023/10/16 11:58:57;;;;;;;2.77;1.07;;;11.90;99.90;;;;;;4225112;28;20274;-78
2023/10/16 12:01:09;;;;;;;3.77;1.10;;;11.80;99.90;;;;;;4230110;27;20274;-79
2023/10/16 12:03:14;;;;;;;5.47;1.77;;;11.80;99.90;;;;;;4232713;27;20279;-79
2023/10/16 12:05:16;;;;;;;5.17;1.67;;;11.80;99.90;;;;;;4233872;27;20208;-77
2023/10/16 12:07:19;;;;;;;5.53;1.70;;;11.80;99.90;;;;;;4231633;28;20197;-79
2023/10/16 12:09:21;;;;;;;8.60;1.67;;;11.80;99.90;;;;;;4225858;28;20209;-78
2023/10/16 12:11:23;;;;;;;5.13;1.27;;;11.80;99.90;;;;;;4227395;28;20252;-78
2023/10/16 12:13:27;;;;;;;3.90;1.30;;;11.80;99.90;;;;;;4224587;28;20202;-78
2023/10/16 12:15:29;;;;;;;2.07;1.00;;;11.80;99.90;;;;;;4224503;27;20217;-78
2023/10/16 12:17:32;;;;;;;2.93;1.10;;;11.80;99.90;;;;;;4222493;28;20698;-78
2023/10/16 12:19:35;;;;;;;1.57;0.97;;;11.80;99.90;;;;;;4222957;28;20224;-77